createdAt,value
2017-10-18T00:02:06.463Z,9.60
2017-10-18T00:04:34.102Z,9.70
2017-10-18T00:07:02.772Z,9.60
2017-10-18T00:09:30.380Z,9.60
2017-10-18T00:11:57.964Z,9.70
2017-10-18T00:14:25.583Z,9.80
2017-10-18T00:16:53.093Z,9.80
2017-10-18T00:19:20.736Z,9.80
2017-10-18T00:21:48.260Z,9.80
2017-10-18T00:24:15.806Z,9.80
2017-10-18T00:26:43.413Z,9.80
2017-10-18T00:29:10.931Z,9.90
2017-10-18T00:31:39.227Z,9.80
2017-10-18T00:34:07.135Z,9.80
2017-10-18T00:36:34.763Z,9.70
2017-10-18T00:39:02.320Z,9.80
2017-10-18T00:41:30.089Z,9.80
2017-10-18T00:43:57.631Z,9.70
2017-10-18T00:46:25.305Z,9.60
2017-10-18T00:48:52.925Z,9.50
2017-10-18T00:51:20.442Z,9.50
2017-10-18T00:53:48.020Z,9.40
2017-10-18T00:56:15.768Z,9.40
2017-10-18T00:58:43.322Z,9.40
2017-10-18T01:01:10.831Z,9.30
2017-10-18T01:03:38.391Z,9.20
2017-10-18T01:06:06.735Z,9.10
2017-10-18T01:08:34.257Z,9.10
2017-10-18T01:11:01.840Z,9.10
2017-10-18T01:13:29.383Z,9.10
2017-10-18T01:15:56.921Z,9.20
2017-10-18T01:18:25.267Z,9.10
2017-10-18T01:20:52.778Z,9.10
2017-10-18T01:23:20.443Z,9.20
2017-10-18T01:25:48.006Z,9.10
2017-10-18T01:28:15.511Z,9.10
2017-10-18T01:30:43.019Z,9.00
2017-10-18T01:33:10.584Z,8.90
2017-10-18T01:35:38.384Z,8.80
2017-10-18T01:38:06.825Z,8.70
2017-10-18T01:40:34.674Z,8.70
2017-10-18T01:43:02.247Z,8.60
2017-10-18T01:45:29.754Z,8.50
2017-10-18T01:47:57.323Z,8.40
2017-10-18T01:50:24.834Z,8.30
2017-10-18T01:52:52.343Z,8.30
2017-10-18T01:55:20.294Z,8.20
2017-10-18T01:57:47.900Z,8.20
2017-10-18T02:00:15.406Z,8.20
2017-10-18T02:02:42.970Z,8.10
2017-10-18T02:05:10.478Z,8.10
2017-10-18T02:07:38.023Z,8.10
2017-10-18T02:10:05.846Z,8.00
2017-10-18T02:12:33.347Z,7.90
2017-10-18T02:15:00.879Z,7.90
2017-10-18T02:17:28.786Z,8.00
2017-10-18T02:19:56.319Z,8.10
2017-10-18T02:22:23.857Z,8.00
2017-10-18T02:24:52.249Z,8.00
2017-10-18T02:27:19.760Z,8.00
2017-10-18T02:29:47.263Z,7.90
2017-10-18T02:32:14.860Z,7.80
2017-10-18T02:34:43.191Z,8.00
2017-10-18T02:37:10.700Z,7.90
2017-10-18T02:39:38.340Z,8.00
2017-10-18T02:42:06.426Z,7.90
2017-10-18T02:44:34.042Z,7.90
2017-10-18T02:47:01.604Z,7.90
2017-10-18T02:49:29.107Z,7.80
2017-10-18T02:51:57.404Z,7.70
2017-10-18T02:54:25.180Z,7.70
2017-10-18T02:56:52.683Z,7.70
2017-10-18T02:59:20.207Z,7.70
2017-10-18T03:01:48.038Z,7.60
2017-10-18T03:04:15.592Z,7.60
2017-10-18T03:06:43.118Z,7.50
2017-10-18T03:09:10.680Z,7.50
2017-10-18T03:11:38.209Z,7.40
2017-10-18T03:14:05.728Z,7.40
2017-10-18T03:16:34.618Z,7.30
2017-10-18T03:19:02.895Z,7.30
2017-10-18T03:21:31.172Z,7.30
2017-10-18T03:23:59.855Z,7.30
2017-10-18T03:26:28.183Z,7.20
2017-10-18T03:28:55.683Z,7.20
2017-10-18T03:31:23.483Z,7.10
2017-10-18T03:33:51.054Z,7.20
2017-10-18T03:36:18.574Z,7.30
2017-10-18T03:38:47.123Z,7.60
2017-10-18T03:41:14.628Z,7.60
2017-10-18T03:43:42.139Z,7.50
2017-10-18T03:46:10.139Z,7.50
2017-10-18T03:48:37.649Z,7.50
2017-10-18T03:51:05.179Z,7.40
2017-10-18T03:53:33.831Z,7.30
2017-10-18T03:56:01.334Z,7.30
2017-10-18T03:58:28.835Z,7.30
2017-10-18T04:00:56.798Z,7.10
2017-10-18T04:03:24.804Z,7.10
2017-10-18T04:05:52.336Z,7.00
2017-10-18T04:08:19.928Z,7.00
2017-10-18T04:10:47.452Z,7.00
2017-10-18T04:13:14.977Z,7.10
2017-10-18T04:15:42.616Z,7.10
2017-10-18T04:18:10.895Z,7.10
2017-10-18T04:20:39.180Z,7.10
2017-10-18T04:23:07.033Z,7.00
2017-10-18T04:25:35.304Z,7.00
2017-10-18T04:28:03.657Z,7.10
2017-10-18T04:30:31.463Z,7.10
2017-10-18T04:32:59.743Z,7.20
2017-10-18T04:35:27.256Z,7.20
2017-10-18T04:37:54.855Z,7.10
2017-10-18T04:40:23.131Z,7.00
2017-10-18T04:42:50.709Z,7.00
2017-10-18T04:45:19.156Z,7.00
2017-10-18T04:47:46.675Z,7.00
2017-10-18T04:50:14.252Z,7.00
2017-10-18T04:52:42.108Z,6.90
2017-10-18T04:55:09.607Z,6.80
2017-10-18T04:57:37.135Z,6.70
2017-10-18T05:00:04.684Z,6.80
2017-10-18T05:02:32.183Z,6.90
2017-10-18T05:04:59.696Z,6.90
2017-10-18T05:07:27.273Z,6.90
2017-10-18T05:09:54.831Z,7.00
2017-10-18T05:12:22.757Z,6.90
2017-10-18T05:14:50.662Z,6.80
2017-10-18T05:17:18.223Z,6.80
2017-10-18T05:19:45.722Z,6.70
2017-10-18T05:22:14.040Z,6.50
2017-10-18T05:24:41.556Z,6.50
2017-10-18T05:27:09.077Z,6.50
2017-10-18T05:29:36.633Z,6.30
2017-10-18T05:32:04.970Z,6.50
2017-10-18T05:34:32.514Z,6.60
2017-10-18T05:37:00.844Z,6.80
2017-10-18T05:39:29.659Z,6.80
2017-10-18T05:41:57.171Z,6.70
2017-10-18T05:44:25.000Z,6.80
2017-10-18T05:46:52.951Z,7.00
2017-10-18T05:49:20.459Z,7.10
2017-10-18T05:51:48.204Z,7.10
2017-10-18T05:54:16.524Z,6.80
2017-10-18T05:56:44.031Z,6.90
2017-10-18T05:59:11.550Z,6.90
2017-10-18T06:01:39.111Z,6.90
2017-10-18T06:04:06.618Z,6.90
2017-10-18T06:06:34.559Z,6.90
2017-10-18T06:09:02.230Z,6.90
2017-10-18T06:11:29.726Z,6.90
2017-10-18T06:13:57.238Z,7.00
2017-10-18T06:16:24.795Z,6.90
2017-10-18T06:18:52.344Z,7.00
2017-10-18T06:21:19.903Z,7.10
2017-10-18T06:23:47.461Z,7.10
2017-10-18T06:26:14.962Z,7.10
2017-10-18T06:28:42.472Z,7.20
2017-10-18T06:31:10.387Z,7.20
2017-10-18T06:33:38.660Z,7.50
2017-10-18T06:36:06.979Z,7.80
2017-10-18T06:38:34.530Z,7.70
2017-10-18T06:41:02.064Z,8.00
2017-10-18T06:43:29.573Z,8.20
2017-10-18T06:45:57.375Z,8.40
2017-10-18T06:48:25.652Z,8.70
2017-10-18T06:50:53.938Z,8.70
2017-10-18T06:53:22.320Z,8.70
2017-10-18T06:55:49.856Z,8.70
2017-10-18T06:58:17.370Z,8.90
2017-10-18T07:00:45.179Z,9.20
2017-10-18T07:03:12.687Z,9.40
2017-10-18T07:05:40.205Z,9.40
2017-10-18T07:08:07.815Z,9.80
2017-10-18T07:10:35.340Z,10.00
2017-10-18T07:13:02.864Z,10.40
2017-10-18T07:15:30.447Z,11.20
2017-10-18T07:17:57.982Z,12.10
2017-10-18T07:20:25.519Z,12.30
2017-10-18T07:22:53.320Z,12.80
2017-10-18T07:25:20.828Z,13.50
2017-10-18T07:27:48.370Z,13.80
2017-10-18T07:30:16.180Z,14.20
2017-10-18T07:32:43.744Z,14.70
2017-10-18T07:35:11.372Z,15.10
2017-10-18T07:37:39.540Z,15.20
2017-10-18T07:40:07.088Z,14.60
2017-10-18T07:42:34.634Z,13.80
2017-10-18T07:45:02.205Z,13.10
2017-10-18T07:47:29.783Z,12.80
2017-10-18T07:49:58.235Z,12.10
2017-10-18T07:52:29.584Z,12.10
2017-10-18T07:54:57.898Z,13.70
2017-10-18T07:57:26.248Z,14.20
2017-10-18T07:59:54.579Z,15.20
2017-10-18T08:02:22.339Z,15.20
2017-10-18T08:04:49.860Z,15.00
2017-10-18T08:07:17.855Z,15.40
2017-10-18T08:09:45.355Z,15.50
2017-10-18T08:12:12.947Z,15.60
2017-10-18T08:14:41.494Z,17.00
2017-10-18T08:17:08.991Z,17.00
2017-10-18T08:19:36.504Z,16.80
2017-10-18T08:22:04.411Z,17.20
2017-10-18T08:24:31.914Z,18.10
2017-10-18T08:26:59.919Z,18.20
2017-10-18T08:29:28.374Z,17.60
2017-10-18T08:31:55.887Z,16.70
2017-10-18T08:34:23.390Z,16.20
2017-10-18T08:36:51.609Z,15.50
2017-10-18T08:39:19.884Z,14.60
2017-10-18T08:41:48.206Z,14.30
2017-10-18T08:44:15.759Z,14.30
2017-10-18T08:46:43.267Z,14.20
2017-10-18T08:49:10.772Z,14.10
2017-10-18T08:51:38.488Z,14.00
2017-10-18T08:54:06.040Z,14.20
2017-10-18T08:56:33.553Z,14.90
2017-10-18T08:59:01.183Z,16.40
2017-10-18T09:01:29.451Z,18.40
2017-10-18T09:03:57.828Z,20.20
2017-10-18T09:06:25.775Z,20.10
2017-10-18T09:08:53.287Z,20.30
2017-10-18T09:11:20.876Z,20.40
2017-10-18T09:13:48.807Z,21.20
2017-10-18T09:16:16.336Z,22.40
2017-10-18T09:18:44.628Z,23.30
2017-10-18T09:21:12.236Z,22.30
2017-10-18T09:23:39.861Z,23.20
2017-10-18T09:26:08.152Z,23.90
2017-10-18T09:28:35.707Z,23.90
2017-10-18T09:31:03.239Z,24.50
2017-10-18T09:33:31.515Z,23.40
2017-10-18T09:36:00.211Z,23.10
2017-10-18T09:38:28.560Z,22.80
2017-10-18T09:40:56.116Z,22.80
2017-10-18T09:43:23.916Z,22.20
2017-10-18T09:45:51.464Z,22.30
2017-10-18T09:48:19.781Z,23.90
2017-10-18T09:50:47.338Z,23.90
2017-10-18T09:53:14.867Z,24.50
2017-10-18T09:55:43.140Z,23.00
2017-10-18T09:58:10.970Z,23.00
2017-10-18T10:00:38.512Z,23.00
2017-10-18T10:03:06.031Z,23.10
2017-10-18T10:05:34.028Z,23.00
2017-10-18T10:08:01.575Z,23.20
2017-10-18T10:10:29.245Z,23.20
2017-10-18T10:12:56.827Z,22.10
2017-10-18T10:15:24.701Z,21.40
2017-10-18T10:17:52.668Z,22.50
2017-10-18T10:20:20.216Z,24.20
2017-10-18T10:22:48.072Z,25.60
2017-10-18T10:25:15.591Z,25.90
2017-10-18T10:27:43.239Z,26.90
2017-10-18T10:30:10.939Z,27.70
2017-10-18T10:32:38.519Z,27.70
2017-10-18T10:35:06.091Z,28.10
2017-10-18T10:37:33.600Z,27.70
2017-10-18T10:40:01.871Z,26.70
2017-10-18T10:42:29.780Z,26.70
2017-10-18T10:44:57.326Z,26.50
2017-10-18T10:47:24.872Z,26.10
2017-10-18T10:49:53.628Z,24.60
2017-10-18T10:52:21.138Z,24.60
2017-10-18T10:54:48.678Z,23.80
2017-10-18T10:57:17.075Z,22.70
2017-10-18T10:59:44.695Z,22.60
2017-10-18T11:02:12.375Z,21.60
2017-10-18T11:04:40.386Z,20.80
2017-10-18T11:07:07.897Z,20.60
2017-10-18T11:09:35.410Z,20.10
2017-10-18T11:12:03.326Z,19.90
2017-10-18T11:14:30.970Z,19.80
2017-10-18T11:16:58.472Z,19.70
2017-10-18T11:19:26.039Z,19.80
2017-10-18T11:21:53.535Z,19.90
2017-10-18T11:24:21.035Z,20.00
2017-10-18T11:26:49.360Z,20.20
2017-10-18T11:29:16.863Z,20.20
2017-10-18T11:31:44.412Z,20.00
2017-10-18T11:34:12.003Z,20.20
2017-10-18T11:36:39.504Z,20.00
2017-10-18T11:39:07.251Z,19.80
2017-10-18T11:41:34.815Z,20.00
2017-10-18T11:44:02.327Z,20.00
2017-10-18T11:46:30.595Z,20.20
2017-10-18T11:48:58.744Z,20.20
2017-10-18T11:51:26.262Z,20.30
2017-10-18T11:53:53.899Z,20.30
2017-10-18T11:56:21.907Z,20.30
2017-10-18T11:58:49.431Z,20.50
2017-10-18T12:01:16.935Z,20.80
2017-10-18T12:03:44.511Z,21.00
2017-10-18T12:06:12.601Z,21.20
2017-10-18T12:08:40.184Z,20.80
2017-10-18T12:11:08.463Z,21.00
2017-10-18T12:13:37.111Z,21.00
2017-10-18T12:16:04.620Z,20.90
2017-10-18T12:18:32.288Z,20.90
2017-10-18T12:20:59.839Z,21.10
2017-10-18T12:23:27.343Z,21.00
2017-10-18T12:25:54.847Z,21.10
2017-10-18T12:28:23.187Z,21.20
2017-10-18T12:30:50.740Z,21.20
2017-10-18T12:33:18.315Z,21.40
2017-10-18T12:35:46.217Z,21.20
2017-10-18T12:38:13.831Z,20.80
2017-10-18T12:40:41.459Z,20.80
2017-10-18T12:43:09.248Z,20.70
2017-10-18T12:45:36.880Z,20.70
2017-10-18T12:48:04.407Z,20.70
2017-10-18T12:50:32.495Z,20.70
2017-10-18T12:53:00.866Z,20.60
2017-10-18T12:55:28.413Z,20.60
2017-10-18T12:57:56.004Z,20.60
2017-10-18T13:00:23.535Z,20.60
2017-10-18T13:02:51.042Z,20.80
2017-10-18T13:05:18.593Z,20.70
2017-10-18T13:07:46.280Z,20.90
2017-10-18T13:10:13.792Z,20.90
2017-10-18T13:12:42.907Z,21.10
2017-10-18T13:15:10.435Z,21.10
2017-10-18T13:17:37.932Z,21.10
2017-10-18T13:20:05.647Z,20.90
2017-10-18T13:22:33.164Z,20.90
2017-10-18T13:25:00.659Z,20.90
2017-10-18T13:27:28.232Z,20.90
2017-10-18T13:29:56.504Z,20.80
2017-10-18T13:32:24.007Z,20.80
2017-10-18T13:34:51.616Z,20.80
2017-10-18T13:37:19.119Z,20.80
2017-10-18T13:39:46.618Z,20.70
2017-10-18T13:42:14.212Z,20.80
2017-10-18T13:44:42.480Z,20.80
2017-10-18T13:47:09.983Z,20.80
2017-10-18T13:49:37.779Z,20.80
2017-10-18T13:52:05.311Z,20.70
2017-10-18T13:54:32.831Z,20.70
2017-10-18T13:57:00.676Z,20.80
2017-10-18T13:59:28.192Z,20.80
2017-10-18T14:01:55.807Z,20.80
2017-10-18T14:04:23.355Z,20.80
2017-10-18T14:06:51.963Z,20.80
2017-10-18T14:09:19.517Z,20.70
2017-10-18T14:11:47.804Z,20.60
2017-10-18T14:14:16.395Z,20.50
2017-10-18T14:16:43.943Z,20.50
2017-10-18T14:19:12.227Z,20.30
2017-10-18T14:21:40.551Z,20.30
2017-10-18T14:24:08.669Z,20.20
2017-10-18T14:26:36.175Z,20.10
2017-10-18T14:29:03.919Z,20.00
2017-10-18T14:31:31.439Z,20.00
2017-10-18T14:33:59.017Z,19.90
2017-10-18T14:36:27.652Z,19.90
2017-10-18T14:38:56.362Z,19.90
2017-10-18T14:41:23.957Z,19.90
2017-10-18T14:43:51.475Z,19.80
2017-10-18T14:46:18.980Z,19.80
2017-10-18T14:48:47.611Z,19.70
2017-10-18T14:51:15.119Z,19.70
2017-10-18T14:53:42.623Z,19.70
2017-10-18T14:56:10.247Z,19.60
2017-10-18T14:58:38.350Z,19.60
2017-10-18T15:01:05.851Z,19.50
2017-10-18T15:03:34.082Z,19.50
2017-10-18T15:06:02.035Z,19.60
2017-10-18T15:08:29.551Z,19.40
2017-10-18T15:10:57.339Z,19.30
2017-10-18T15:13:24.854Z,19.20
2017-10-18T15:15:52.381Z,19.30
2017-10-18T15:18:20.595Z,19.20
2017-10-18T15:20:48.095Z,19.10
2017-10-18T15:23:15.592Z,19.00
2017-10-18T15:25:43.378Z,18.90
2017-10-18T15:28:10.891Z,18.80
2017-10-18T15:30:38.399Z,18.70
2017-10-18T15:33:05.983Z,18.60
2017-10-18T15:35:34.253Z,18.30
2017-10-18T15:38:02.550Z,18.20
2017-10-18T15:40:30.475Z,18.20
2017-10-18T15:42:57.979Z,18.10
2017-10-18T15:45:25.778Z,18.10
2017-10-18T15:47:53.352Z,18.00
2017-10-18T15:50:20.894Z,17.90
2017-10-18T15:52:48.399Z,17.80
2017-10-18T15:55:16.191Z,17.70
2017-10-18T15:57:43.897Z,17.60
2017-10-18T16:00:11.438Z,17.60
2017-10-18T16:02:40.579Z,17.40
2017-10-18T16:05:08.847Z,17.30
2017-10-18T16:07:36.346Z,17.30
2017-10-18T16:10:03.907Z,17.20
2017-10-18T16:12:31.527Z,17.20
2017-10-18T16:14:59.107Z,17.00
2017-10-18T16:17:27.657Z,16.80
2017-10-18T16:32:43.551Z,16.60
2017-10-18T16:35:11.115Z,16.50
2017-10-18T16:37:39.448Z,16.20
2017-10-18T16:40:07.027Z,16.20
2017-10-18T16:42:34.668Z,16.10
2017-10-18T16:45:02.175Z,16.00
2017-10-18T16:47:30.766Z,15.80
2017-10-18T16:49:58.279Z,15.70
2017-10-18T16:52:25.835Z,15.60
2017-10-18T16:54:54.504Z,15.50
2017-10-18T16:57:22.204Z,15.40
2017-10-18T16:59:49.756Z,15.30
2017-10-18T17:02:17.300Z,15.20
2017-10-18T17:04:44.803Z,15.00
2017-10-18T17:07:12.431Z,14.90
2017-10-18T17:09:40.368Z,14.70
2017-10-18T17:12:07.907Z,14.70
2017-10-18T17:14:36.227Z,14.60
2017-10-18T17:17:03.832Z,14.60
2017-10-18T17:19:32.235Z,14.30
2017-10-18T17:21:59.799Z,14.30
2017-10-18T17:24:27.772Z,14.10
2017-10-18T17:26:55.431Z,13.90
2017-10-18T17:29:22.984Z,13.70
2017-10-18T17:31:51.190Z,13.70
2017-10-18T17:34:19.408Z,13.60
2017-10-18T17:36:46.927Z,13.50
2017-10-18T17:39:14.696Z,13.40
2017-10-18T17:41:42.239Z,13.30
2017-10-18T17:44:09.751Z,13.20
2017-10-18T17:46:37.264Z,13.10
2017-10-18T17:49:05.192Z,12.90
2017-10-18T17:51:32.771Z,12.80
2017-10-18T17:54:00.332Z,12.80
2017-10-18T17:56:28.543Z,12.70
2017-10-18T17:58:56.056Z,12.70
2017-10-18T18:01:23.917Z,12.60
2017-10-18T18:03:51.464Z,12.50
2017-10-18T18:06:19.736Z,12.30
2017-10-18T18:08:47.476Z,12.20
2017-10-18T18:11:15.496Z,12.20
2017-10-18T18:13:43.195Z,12.10
2017-10-18T18:16:10.836Z,12.00
2017-10-18T18:18:38.656Z,11.90
2017-10-18T18:21:06.934Z,11.80
2017-10-18T18:23:34.438Z,11.80
2017-10-18T18:26:04.579Z,11.80
2017-10-18T18:28:32.114Z,11.80
2017-10-18T18:30:59.704Z,11.90
2017-10-18T18:33:27.739Z,11.90
2017-10-18T18:35:55.277Z,11.90
2017-10-18T18:38:23.587Z,11.90
2017-10-18T18:40:51.896Z,11.90
2017-10-18T18:43:19.399Z,11.80
2017-10-18T18:45:47.540Z,11.70
2017-10-18T18:48:15.127Z,11.60
2017-10-18T18:50:42.651Z,11.40
2017-10-18T18:53:10.318Z,11.30
2017-10-18T18:55:39.513Z,11.20
2017-10-18T18:58:07.333Z,11.20
2017-10-18T19:00:34.838Z,11.30
2017-10-18T19:03:03.109Z,11.20
2017-10-18T19:05:30.672Z,11.10
2017-10-18T19:07:58.184Z,11.00
2017-10-18T19:10:25.748Z,11.00
2017-10-18T19:12:53.271Z,10.90
2017-10-18T19:15:20.819Z,10.90
2017-10-18T19:17:48.628Z,10.80
2017-10-18T19:20:16.236Z,10.80
2017-10-18T19:22:43.758Z,10.80
2017-10-18T19:25:11.424Z,10.70
2017-10-18T19:27:38.995Z,10.70
2017-10-18T19:30:06.635Z,10.70
2017-10-18T19:32:34.202Z,10.70
2017-10-18T19:35:01.720Z,10.70
2017-10-18T19:37:30.098Z,10.70
2017-10-18T19:39:58.063Z,10.70
2017-10-18T19:42:26.351Z,10.70
2017-10-18T19:44:54.748Z,10.60
2017-10-18T19:47:22.346Z,10.60
2017-10-18T19:49:49.852Z,10.50
2017-10-18T19:52:17.415Z,10.40
2017-10-18T19:54:45.748Z,10.30
2017-10-18T19:57:14.071Z,10.30
2017-10-18T19:59:41.580Z,10.20
2017-10-18T20:02:09.134Z,10.20
2017-10-18T20:04:36.724Z,10.30
2017-10-18T20:07:04.300Z,10.30
2017-10-18T20:09:31.913Z,10.30
2017-10-18T20:11:59.576Z,10.10
2017-10-18T20:14:27.087Z,10.00
2017-10-18T20:16:55.052Z,9.90
2017-10-18T20:19:23.344Z,9.90
2017-10-18T20:21:50.966Z,9.80
2017-10-18T20:24:18.475Z,9.80
2017-10-18T20:26:46.715Z,9.80
2017-10-18T20:29:14.539Z,9.80
2017-10-18T20:31:42.948Z,9.80
2017-10-18T20:34:10.485Z,9.80
2017-10-18T20:36:38.049Z,9.80
2017-10-18T20:39:05.875Z,9.70
2017-10-18T20:41:33.375Z,9.70
2017-10-18T20:44:00.906Z,9.70
2017-10-18T20:46:28.475Z,9.80
2017-10-18T20:48:55.975Z,9.70
2017-10-18T20:51:23.485Z,9.60
2017-10-18T20:53:51.055Z,9.60
2017-10-18T20:56:18.557Z,9.60
2017-10-18T20:58:48.401Z,9.60
2017-10-18T21:01:18.369Z,9.60
2017-10-18T21:03:46.478Z,9.50
2017-10-18T21:06:15.548Z,9.40
2017-10-18T21:08:46.222Z,9.40
2017-10-18T21:11:16.292Z,9.40
2017-10-18T21:13:48.715Z,9.50
2017-10-18T21:16:21.348Z,9.50
2017-10-18T21:18:52.218Z,9.40
2017-10-18T21:21:20.735Z,9.60
2017-10-18T21:23:48.720Z,9.40
2017-10-18T21:26:16.228Z,9.40
2017-10-18T21:28:43.959Z,9.30
2017-10-18T21:31:11.651Z,9.30
2017-10-18T21:33:39.360Z,9.20
2017-10-18T21:36:07.247Z,9.20
2017-10-18T21:38:34.751Z,9.10
2017-10-18T21:41:02.258Z,9.10
2017-10-18T21:43:30.267Z,9.20
2017-10-18T21:45:57.771Z,9.20
2017-10-18T21:48:25.275Z,9.10
2017-10-18T21:50:53.503Z,9.20
2017-10-18T21:53:21.035Z,9.20
2017-10-18T21:55:48.549Z,9.20
2017-10-18T21:58:16.107Z,9.00
2017-10-18T22:00:43.620Z,9.00
2017-10-18T22:03:11.157Z,9.00
2017-10-18T22:05:39.466Z,9.00
2017-10-18T22:08:06.982Z,9.00
2017-10-18T22:10:34.499Z,9.10
2017-10-18T22:13:02.054Z,9.10
2017-10-18T22:15:29.591Z,9.10
2017-10-18T22:17:57.108Z,9.10
2017-10-18T22:20:24.726Z,9.00
2017-10-18T22:22:52.284Z,9.00
2017-10-18T22:25:19.819Z,8.90
2017-10-18T22:27:47.394Z,8.80
2017-10-18T22:30:15.851Z,8.70
2017-10-18T22:32:43.364Z,8.80
2017-10-18T22:35:10.919Z,8.90
2017-10-18T22:37:38.459Z,9.10
2017-10-18T22:40:06.003Z,9.10
2017-10-18T22:42:33.567Z,9.00
2017-10-18T22:45:01.079Z,8.90
2017-10-18T22:47:28.595Z,8.80
2017-10-18T22:49:56.235Z,8.60
2017-10-18T22:52:24.777Z,8.40
2017-10-18T22:54:52.287Z,8.40
2017-10-18T22:57:19.944Z,8.40
2017-10-18T22:59:47.463Z,8.40
2017-10-18T23:02:14.968Z,8.40
2017-10-18T23:04:42.763Z,8.40
2017-10-18T23:07:10.350Z,8.40
2017-10-18T23:09:37.868Z,8.40
2017-10-18T23:12:05.811Z,8.30
2017-10-18T23:14:33.333Z,8.30
2017-10-18T23:17:00.834Z,8.30
2017-10-18T23:19:28.427Z,8.40
2017-10-18T23:21:56.287Z,8.40
2017-10-18T23:24:25.446Z,8.40
2017-10-18T23:26:53.043Z,8.40
2017-10-18T23:29:20.560Z,8.20
2017-10-18T23:31:48.839Z,8.10
2017-10-18T23:34:17.412Z,8.10
2017-10-18T23:36:44.931Z,8.10
2017-10-18T23:39:12.437Z,8.20
2017-10-18T23:41:40.759Z,8.00
2017-10-18T23:44:08.267Z,8.00
2017-10-18T23:46:35.960Z,7.90
2017-10-18T23:49:03.760Z,7.80
2017-10-18T23:51:31.269Z,7.80
2017-10-18T23:53:58.783Z,7.70
2017-10-18T23:56:26.359Z,7.70
2017-10-18T23:58:53.872Z,7.70
